Karvounis — C6AA3 — position and weather

sailwx.info

Track history (hours):
 
Tides and Currents Weather Stations Pressure Air Temp Water Temp Dewpoint Dewpoint Depression Visibility Wind Speed Wind Dir Waves Ship Positions

Karvounis

Last reported at 2018-Feb-11 21:15 UTC. Time now 2018-Feb-20 07:33 UTC.
Position N 01°20' E 103°17'.
Warning: this ship's position is 8 days out of date.

Length 274 m; draft 8.9 m.

Type: Ship. MMSI: 311073600.

Date/timePositionNaut miles runAvg speedWind from/ knotsBaromVisibWave heightAir tempDewpointWater temp
2018-Feb-11 21:15N 01°20' E 103°17'312.8
2018-Feb-11 21:00N 01°18' E 103°19'813.2
2018-Feb-11 20:25N 01°14' E 103°26'614.5
2018-Feb-11 19:59N 01°12' E 103°32'713.3
2018-Feb-11 19:29N 01°11' E 103°38'613.0
2018-Feb-11 19:00N 01°08' E 103°44'815.2
2018-Feb-11 18:30N 01°12' E 103°51'4 7.9
2018-Feb-11 17:57N 01°15' E 103°54'0 0.4
2018-Feb-11 17:30N 01°15' E 103°54'0 0.0
2018-Feb-11 16:54N 01°15' E 103°54'0 0.0
2018-Feb-11 16:30N 01°15' E 103°54'0 0.0
2018-Feb-11 16:00N 01°15' E 103°54'0 0.0
2018-Feb-11 15:30N 01°15' E 103°54'0 0.0
2018-Feb-11 15:00N 01°15' E 103°54'0 0.0
2018-Feb-11 14:30N 01°15' E 103°54'0 0.0
2018-Feb-11 14:00N 01°15' E 103°54'0 0.0
2018-Feb-11 13:30N 01°15' E 103°54'0 0.0
2018-Feb-11 13:00N 01°15' E 103°54'0 0.0
2018-Feb-11 12:30N 01°15' E 103°54'0 0.0
2018-Feb-11 12:00N 01°15' E 103°54'0 0.0
2018-Feb-11 11:30N 01°15' E 103°54'0 0.0
2018-Feb-11 11:00N 01°15' E 103°54'0 0.1
2018-Feb-11 10:30N 01°15' E 103°54'0 0.1
2018-Feb-11 10:00N 01°15' E 103°54'0 0.0
2018-Feb-11 09:30N 01°15' E 103°54'0 0.0
2018-Feb-11 09:00N 01°15' E 103°54'0 0.0
2018-Feb-11 08:18N 01°15' E 103°54'0 0.2
2018-Feb-11 08:00N 01°15' E 103°54'0 0.3
2018-Feb-11 07:30N 01°15' E 103°54'0 0.1
2018-Feb-11 06:48N 01°15' E 103°54'0 0.2
2018-Feb-11 06:30N 01°15' E 103°54'0 0.1
2018-Feb-11 06:00N 01°15' E 103°54'0 0.0
2018-Feb-11 05:30N 01°15' E 103°54'0 0.0
2018-Feb-11 05:00N 01°15' E 103°54'0 0.1
2018-Feb-11 04:30N 01°15' E 103°54'0 0.1
2018-Feb-11 03:59N 01°15' E 103°54'0 0.1
2018-Feb-11 03:30N 01°15' E 103°54'1 1.3
2018-Feb-11 02:59N 01°14' E 103°54'4 7.5
2018-Feb-11 02:30N 01°16' E 103°58'3 6.6
2018-Feb-11 01:59N 01°16' E 104°01'6 9.7
2018-Feb-11 01:24N 01°17' E 104°07'613.1
2018-Feb-11 00:58N 01°17' E 104°12'5510.8
2018-Feb-10 19:50N 01°55' E 104°53'4 8.7
2018-Feb-10 19:26N 01°58' E 104°55'  
2018-Feb-04 14:09N 21°51' E 121°02'1311.6
2018-Feb-04 13:04N 22°01' E 121°10'111.7
2018-Feb-04 12:59N 22°01' E 121°11'612.0
2018-Feb-04 12:28N 22°07' E 121°14'612.0
2018-Feb-04 11:58N 22°11' E 121°18'511.4
2018-Feb-04 11:30N 22°15' E 121°22'1711.5
2018-Feb-04 09:59N 22°29' E 121°34'1311.2
2018-Feb-04 08:48N 22°41' E 121°41'611.6
2018-Feb-04 08:18N 22°46' E 121°43'410.6
2018-Feb-04 07:55N 22°50' E 121°44'4 9.1
2018-Feb-04 07:29N 22°54' E 121°46'5 9.3
2018-Feb-04 06:56N 22°58' E 121°48'14 9.8
2018-Feb-04 05:33N 23°11' E 121°54'212.7
2018-Feb-04 05:24N 23°13' E 121°55'5710.2
2018-Feb-03 23:53N 24°06' E 122°15'4 9.8
2018-Feb-03 23:28N 24°10' E 122°17'5 9.8
2018-Feb-03 23:00N 24°14' E 122°19'5 9.7
2018-Feb-03 22:30N 24°18' E 122°22'510.0
2018-Feb-03 22:00N 24°22' E 122°24'510.0
2018-Feb-03 21:30N 24°27' E 122°27'5 9.9
2018-Feb-03 21:00N 24°31' E 122°29'5 9.8
2018-Feb-03 20:30N 24°36' E 122°31'510.6
2018-Feb-03 20:00N 24°41' E 122°34'1510.2
2018-Feb-03 18:30N 24°54' E 122°41'510.0
2018-Feb-03 18:01N 24°59' E 122°44'510.0
2018-Feb-03 17:30N 25°03' E 122°46'510.0
2018-Feb-03 17:01N 25°08' E 122°48'1010.3
2018-Feb-03 16:00N 25°18' E 122°52'510.7
2018-Feb-03 15:30N 25°23' E 122°54'610.9
2018-Feb-03 14:58N 25°28' E 122°57'  
Track history (hours):
 
Tides and Currents Weather Stations Pressure Air Temp Water Temp Dewpoint Dewpoint Depression Visibility Wind Speed Wind Dir Waves Ship Positions

Karvounis

Last reported at 2018-Feb-11 21:15 UTC. Time now 2018-Feb-20 07:33 UTC.
Position N 01°20' E 103°17'.
Warning: this ship's position is 8 days out of date.

Length 274 m; draft 8.9 m.

Type: Ship. MMSI: 311073600.

Date/timePositionNaut miles runAvg speedWind from/ knotsBaromVisibWave heightAir tempDewpointWater temp
2018-Feb-11 21:15N 01°20' E 103°17'312.8
2018-Feb-11 21:00N 01°18' E 103°19'813.2
2018-Feb-11 20:25N 01°14' E 103°26'614.5
2018-Feb-11 19:59N 01°12' E 103°32'713.3
2018-Feb-11 19:29N 01°11' E 103°38'613.0
2018-Feb-11 19:00N 01°08' E 103°44'815.2
2018-Feb-11 18:30N 01°12' E 103°51'4 7.9
2018-Feb-11 17:57N 01°15' E 103°54'0 0.4
2018-Feb-11 17:30N 01°15' E 103°54'0 0.0
2018-Feb-11 16:54N 01°15' E 103°54'0 0.0
2018-Feb-11 16:30N 01°15' E 103°54'0 0.0
2018-Feb-11 16:00N 01°15' E 103°54'0 0.0
2018-Feb-11 15:30N 01°15' E 103°54'0 0.0
2018-Feb-11 15:00N 01°15' E 103°54'0 0.0
2018-Feb-11 14:30N 01°15' E 103°54'0 0.0
2018-Feb-11 14:00N 01°15' E 103°54'0 0.0
2018-Feb-11 13:30N 01°15' E 103°54'0 0.0
2018-Feb-11 13:00N 01°15' E 103°54'0 0.0
2018-Feb-11 12:30N 01°15' E 103°54'0 0.0
2018-Feb-11 12:00N 01°15' E 103°54'0 0.0
2018-Feb-11 11:30N 01°15' E 103°54'0 0.0
2018-Feb-11 11:00N 01°15' E 103°54'0 0.1
2018-Feb-11 10:30N 01°15' E 103°54'0 0.1
2018-Feb-11 10:00N 01°15' E 103°54'0 0.0
2018-Feb-11 09:30N 01°15' E 103°54'0 0.0
2018-Feb-11 09:00N 01°15' E 103°54'0 0.0
2018-Feb-11 08:18N 01°15' E 103°54'0 0.2
2018-Feb-11 08:00N 01°15' E 103°54'0 0.3
2018-Feb-11 07:30N 01°15' E 103°54'0 0.1
2018-Feb-11 06:48N 01°15' E 103°54'0 0.2
2018-Feb-11 06:30N 01°15' E 103°54'0 0.1
2018-Feb-11 06:00N 01°15' E 103°54'0 0.0
2018-Feb-11 05:30N 01°15' E 103°54'0 0.0
2018-Feb-11 05:00N 01°15' E 103°54'0 0.1
2018-Feb-11 04:30N 01°15' E 103°54'0 0.1
2018-Feb-11 03:59N 01°15' E 103°54'0 0.1
2018-Feb-11 03:30N 01°15' E 103°54'1 1.3
2018-Feb-11 02:59N 01°14' E 103°54'4 7.5
2018-Feb-11 02:30N 01°16' E 103°58'3 6.6
2018-Feb-11 01:59N 01°16' E 104°01'6 9.7
2018-Feb-11 01:24N 01°17' E 104°07'613.1
2018-Feb-11 00:58N 01°17' E 104°12'5510.8
2018-Feb-10 19:50N 01°55' E 104°53'4 8.7
2018-Feb-10 19:26N 01°58' E 104°55'  
2018-Feb-04 14:09N 21°51' E 121°02'1311.6
2018-Feb-04 13:04N 22°01' E 121°10'111.7
2018-Feb-04 12:59N 22°01' E 121°11'612.0
2018-Feb-04 12:28N 22°07' E 121°14'612.0
2018-Feb-04 11:58N 22°11' E 121°18'511.4
2018-Feb-04 11:30N 22°15' E 121°22'1711.5
2018-Feb-04 09:59N 22°29' E 121°34'1311.2
2018-Feb-04 08:48N 22°41' E 121°41'611.6
2018-Feb-04 08:18N 22°46' E 121°43'410.6
2018-Feb-04 07:55N 22°50' E 121°44'4 9.1
2018-Feb-04 07:29N 22°54' E 121°46'5 9.3
2018-Feb-04 06:56N 22°58' E 121°48'14 9.8
2018-Feb-04 05:33N 23°11' E 121°54'212.7
2018-Feb-04 05:24N 23°13' E 121°55'5710.2
2018-Feb-03 23:53N 24°06' E 122°15'4 9.8
2018-Feb-03 23:28N 24°10' E 122°17'5 9.8
2018-Feb-03 23:00N 24°14' E 122°19'5 9.7
2018-Feb-03 22:30N 24°18' E 122°22'510.0
2018-Feb-03 22:00N 24°22' E 122°24'510.0
2018-Feb-03 21:30N 24°27' E 122°27'5 9.9
2018-Feb-03 21:00N 24°31' E 122°29'5 9.8
2018-Feb-03 20:30N 24°36' E 122°31'510.6
2018-Feb-03 20:00N 24°41' E 122°34'1510.2
2018-Feb-03 18:30N 24°54' E 122°41'510.0
2018-Feb-03 18:01N 24°59' E 122°44'510.0
2018-Feb-03 17:30N 25°03' E 122°46'510.0
2018-Feb-03 17:01N 25°08' E 122°48'1010.3
2018-Feb-03 16:00N 25°18' E 122°52'510.7
2018-Feb-03 15:30N 25°23' E 122°54'610.9
2018-Feb-03 14:58N 25°28' E 122°57'  

Dump ship's entire track history